• Join FlightAware (Why Join?)
  • Login
  • US Flag 
09:07PM EDT


 

Airport Tracker/Info


-or-


 

Live Flight TrackerFlight Track Log ✈ ELJ442 ✈ 24-Aug-2013 ✈ KPBI - KLUK

Flight Track Log - Related Links

Times and Time Zones

All times are in EDT time to prevent confusion due to time zone crossing. See the ELJ442 flight status page for this flight to view local times or setup timezone preferences in your user account.

Time Position Orientation Groundspeed Altitude Reporting Facility
EDT Latitude Longitude Course Direction KTS MPH feet Rate Location/Type
04:39PM 26.7331 -80.0386 334° Northwest 175 201 6,800  Level Miami Center
04:40PM 26.7628 -80.1117 295° West 200 230 9,600 2,820 Climbing Miami Center
04:41PM 26.7964 -80.1964 294° West 274 315 12,500 2,220 Climbing Miami Center
04:42PM 26.8500 -80.3072 298° West 351 404 14,100 1,740 Climbing Miami Center
04:43PM 26.9680 -80.3785 334° Northwest  Level FlightAware Approximate
04:43PM 26.9444 -80.3706 329° Northwest 375 432 16,000  Level Miami Center
04:44PM 27.0626 -80.4311 334° Northwest  Level FlightAware Approximate
04:44PM 27.0436 -80.4178 337° Northwest 375 432 20,400  Level Miami Center
04:45PM 27.1428 -80.4606 339° North 380 437 22,800 2,400 Climbing Miami Center
04:46PM 27.2503 -80.5106 338° Northwest 391 450 25,300 2,160 Climbing Miami Center
04:47PM 27.3422 -80.5836 325° Northwest 396 456 27,200 1,920 Climbing Miami Center
04:48PM 27.4297 -80.6753 317° Northwest 415 478 29,200 1,500 Climbing Miami Center
04:49PM 27.5047 -80.7575 316° Northwest 415 478 30,300 1,680 Climbing Miami Center
04:50PM 27.5897 -80.8517 316° Northwest 421 484 32,600 2,100 Climbing Miami Center
04:51PM 27.6750 -80.9439 316° Northwest 421 484 34,600 1,620 Climbing Miami Center
04:52PM 27.7733 -81.0014 333° Northwest 409 471 35,900 1,380 Climbing Miami Center
04:53PM 27.8850 -81.0358 345° North 402 463 37,400 1,440 Climbing Miami Center
04:54PM 27.9925 -81.0728 343° North 407 468 38,800 1,380 Climbing Miami Center
04:55PM 28.1019 -81.1144 341° North 402 463 40,200 1,080 Climbing Miami Center
04:56PM 28.2072 -81.1514 343° North 397 457 41,000 300 Climbing Miami Center
04:57PM 28.3831 -81.2175 342° North 412 474 41,000  Level Jacksonville Center
04:58PM 28.5047 -81.2603 343° North 412 474 41,000  Level Jacksonville Center
04:59PM 28.6181 -81.3033 342° North 418 481 41,000  Level Jacksonville Center
05:00PM 28.7292 -81.3442 342° North 418 481 41,000  Level Jacksonville Center
05:01PM 28.8444 -81.3850 343° North 428 493 41,000  Level Jacksonville Center
05:02PM 28.9556 -81.4236 343° North 428 493 41,000  Level Jacksonville Center
05:03PM 29.0686 -81.4672 341° North 428 493 41,000  Level Jacksonville Center
05:04PM 29.1817 -81.5058 343° North 428 493 41,000  Level Jacksonville Center
05:05PM 29.2844 -81.5378 345° North 423 487 41,000  Level Jacksonville Center
05:06PM 29.3975 -81.5769 343° North 423 487 41,000  Level Jacksonville Center
05:07PM 29.5147 -81.6158 344° North 423 487 41,000  Level Jacksonville Center
05:08PM 29.6278 -81.6525 344° North 423 487 41,000  Level Jacksonville Center
05:09PM 29.7453 -81.6917 344° North 423 487 41,000  Level Jacksonville Center
05:10PM 29.8583 -81.7286 344° North 418 481 41,000  Level Jacksonville Center
05:11PM 29.9714 -81.7656 344° North 418 481 41,000  Level Jacksonville Center
05:12PM 30.0886 -81.8003 346° North 423 487 41,000  Level Jacksonville Center
05:13PM 30.1994 -81.8400 343° North 418 481 41,000  Level Jacksonville Center
05:14PM 30.3106 -81.8772 344° North 418 481 41,000  Level Jacksonville Center
05:15PM 30.4194 -81.9144 344° North 413 475 41,000  Level Jacksonville Center
05:16PM 30.5281 -81.9472 345° North 407 468 41,000  Level Jacksonville Center
05:17PM 30.6369 -81.9919 341° North 407 468 41,000  Level Jacksonville Center
05:18PM 30.7439 -82.0272 344° North 407 468 41,000  Level Jacksonville Center
05:19PM 30.8525 -82.0650 343° North 402 463 41,000  Level Jacksonville Center
05:20PM 30.9614 -82.1028 343° North 402 463 41,000  Level Jacksonville Center
05:21PM 31.0703 -82.1406 343° North 402 463 41,000  Level Jacksonville Center
05:22PM 31.1792 -82.1786 343° North 402 463 41,000  Level Jacksonville Center
05:23PM 31.2878 -82.2167 343° North 402 463 41,000 120 Level Jacksonville Center
05:24PM 31.4008 -82.2550 344° North 407 468 41,300 900 Climbing Jacksonville Center
05:25PM 31.5053 -82.2908 344° North 402 463 42,900 840 Climbing Jacksonville Center
05:26PM 31.6058 -82.3267 343° North 389 448 43,000  Climbing Jacksonville Center
05:28PM 31.8108 -82.3942 344° North 385 443 43,000  Level Atlanta Center
05:29PM 31.9197 -82.4314 344° North 390 449 43,000  Level Atlanta Center
05:30PM 32.0289 -82.4711 343° North 400 460 43,000  Level Atlanta Center
05:31PM 32.1378 -82.5108 343° North 405 466 43,000  Level Atlanta Center
05:32PM 32.2511 -82.5481 344° North 405 466 43,000  Level Atlanta Center
05:33PM 32.3581 -82.5881 342° North 405 466 43,000  Level Atlanta Center
05:34PM 32.4775 -82.6281 344° North 410 472 43,000  Level Atlanta Center
05:35PM 32.5864 -82.6656 344° North 416 479 43,000  Level Atlanta Center
05:36PM 32.6975 -82.7108 341° North 416 479 43,000  Level Atlanta Center
05:37PM 32.8128 -82.7486 345° North 421 484 43,000  Level Atlanta Center
05:38PM 32.9236 -82.7892 343° North 421 484 43,000  Level Atlanta Center
05:39PM 33.0389 -82.8319 343° North 421 484 43,000  Level Atlanta Center
05:40PM 33.1542 -82.8750 343° North 421 484 43,000  Level Atlanta Center
05:41PM 33.2694 -82.9158 344° North 421 484 43,000  Level Atlanta Center
05:42PM 33.3886 -82.9567 344° North 429 494 43,000  Level Atlanta Center
05:43PM 33.5039 -82.9950 345° North 429 494 43,000  Level Atlanta Center
05:44PM 33.6169 -83.0386 342° North 424 488 43,000  Level Atlanta Center
05:45PM 33.7300 -83.0797 343° North 419 482 43,000  Level Atlanta Center
05:46PM 33.8472 -83.1233 343° North 424 488 43,000  Level Atlanta Center
05:47PM 33.9728 -83.1672 344° North 430 495 43,000  Level Atlanta Center
05:48PM 34.0878 -83.2111 342° North 424 488 43,000  Level Atlanta Center
05:49PM 34.2028 -83.2500 344° North 424 488 43,000  Level Atlanta Center
05:50PM 34.3181 -83.2944 342° North 424 488 43,000  Level Atlanta Center
05:51PM 34.4331 -83.3361 343° North 424 488 43,000  Level Atlanta Center
05:52PM 34.5458 -83.3781 343° North 424 488 43,000  Level Atlanta Center
05:53PM 34.6608 -83.4200 343° North 424 488 43,000  Level Atlanta Center
05:54PM 34.7633 -83.4622 341° North 424 488 43,000  Level Atlanta Center
05:55PM 34.8742 -83.5047 343° North 424 488 43,000  Level Atlanta Center
05:56PM 34.9892 -83.5469 343° North 429 494 43,000  Level Atlanta Center
05:57PM 35.1000 -83.5894 343° North 424 488 43,000  Level Atlanta Center
05:58PM 35.2128 -83.6319 343° North 424 488 43,000  Level Atlanta Center
05:59PM 35.3256 -83.6747 343° North 424 488 43,000  Level Atlanta Center
06:00PM 35.4361 -83.7175 343° North 424 488 43,000  Level Atlanta Center
06:01PM 35.5489 -83.7606 343° North 424 488 43,000  Level Atlanta Center
06:02PM 35.6617 -83.8011 344° North 424 488 43,000  Level Atlanta Center
06:03PM 35.7744 -83.8467 342° North 419 482 43,000 -240 Level Atlanta Center
06:04PM 35.8872 -83.8850 345° North 419 482 42,600 -840 Descending Atlanta Center
06:05PM 36.0039 -83.8797 North 411 473 41,400 -1,440 Descending Atlanta Center
06:06PM 36.1611 -83.8508 North 414 476 39,400 -1,500 Descending Indianapolis Center
06:07PM 36.2753 -83.8300 North 415 478 38,100 -720 Descending Indianapolis Center
06:08PM 36.3906 -83.8103 North 417 480 38,000 -60 Descending Indianapolis Center
06:09PM 36.5067 -83.7889 North 422 486 38,000  Level Indianapolis Center
06:10PM 36.6272 -83.7708 North 427 491 38,000 -360 Level Indianapolis Center
06:11PM 36.7444 -83.7486 North 423 487 37,300 -1,260 Descending Indianapolis Center
06:12PM 36.8619 -83.7289 North 421 484 35,500 -1,800 Descending Indianapolis Center
06:14PM 36.9808 -83.7064 North 426 490 33,600 -1,260 Descending Indianapolis Center
06:15PM 37.1208 -83.6819 North 430 495 33,000 -300 Descending Indianapolis Center
06:16PM 37.2411 -83.6611 North 432 497 33,000 -780 Level Indianapolis Center
06:17PM 37.3622 -83.6386 North 435 501 31,500 -2,520 Descending Indianapolis Center
06:18PM 37.4819 -83.6158 North 433 498 27,900 -3,540 Descending Indianapolis Center
06:19PM 37.6014 -83.5961 North 429 494 24,300 -2,040 Descending Indianapolis Center
06:20PM 37.7128 -83.6361 344° North 423 487 23,800 -1,260 Descending Indianapolis Center
06:21PM 37.8153 -83.7106 330° Northwest 423 487 21,800 -1,860 Descending Indianapolis Center
06:22PM 37.9189 -83.7833 331° Northwest 424 488 20,000 -1,920 Descending Indianapolis Center
06:23PM 38.0347 -83.8686 330° Northwest 413 475 17,900 -1,800 Descending Indianapolis Center
06:24PM 38.1333 -83.9386 331° Northwest 406 467 16,400 -1,560 Descending Indianapolis Center
06:25PM 38.2319 -84.0086 331° Northwest 405 466 14,800 -1,620 Descending Indianapolis Center
06:26PM 38.3289 -84.0783 331° Northwest 399 459 13,200 -1,380 Descending Indianapolis Center
06:27PM 38.4231 -84.1461 331° Northwest 389 448 12,000 -600 Descending Indianapolis Center
06:28PM 38.5178 -84.2003 336° Northwest 376 433 12,000 -360 Level Indianapolis Center
06:29PM 38.6175 -84.2361 344° North 372 428 11,300 -1,140 Descending Indianapolis Center
06:30PM 38.7047 -84.2683 344° North 301 346 9,700 -1,740 Descending Indianapolis Center
06:31PM 38.7786 -84.2953 344° North 278 320 7,800 -1,860 Descending Indianapolis Center
06:32PM 38.8494 -84.3233 343° North 269 310 5,900 -1,860 Descending Indianapolis Center
06:33PM 38.9200 -84.3492 344° North 265 305 4,000 -1,140 Descending Indianapolis Center
06:34PM 38.9892 -84.3756 343° North 265 305 3,600 -660 Descending Indianapolis Center
06:36PM 39.1000 -84.3500 10° North 208 239 2,100 -660 Descending Cincinnati TRACON
06:37PM 39.1333 -84.3667 339° North 156 180 1,800 -300 Descending Cincinnati TRACON
06:39PM 39.1000 -84.4167 229° Southwest  Level FlightAware Approximate
06:46PM 39.1033 -84.4186 229° Southwest  Level Estimated